Time;durP1;ratioP1;P1;durP2;ratioP2;P2;SDS_P1;SDS_P2;PMS_P1;PMS_P2;Temp;Humidity;BMP_temperature;BMP_pressure;BME280_temperature;BME280_humidity;BME280_pressure;Samples;Min_cycle;Max_cycle;Signal;HPM_P1;HPM_P2
2024/02/24 01:02:22;;;;;;;7.47;4.60;;;5.50;99.90;;;;;;5516196;23;20050;-83
2024/02/24 08:04:40;;;;;;;18.35;12.40;;;5.80;99.90;;;;;;5363240;23;20333;-82
2024/02/24 08:07:06;;;;;;;15.17;11.63;;;5.80;99.90;;;;;;4907169;29;37819;-82
2024/02/24 08:09:40;;;;;;;21.93;13.00;;;5.80;99.90;;;;;;4905593;29;39125;-81
2024/02/24 08:12:07;;;;;;;20.00;13.00;;;5.90;99.90;;;;;;4907576;29;39209;-81
2024/02/24 08:14:41;;;;;;;16.57;11.93;;;5.80;99.90;;;;;;4905675;29;38371;-83
2024/02/24 08:17:11;;;;;;;18.27;13.10;;;5.80;99.90;;;;;;4905767;29;38791;-81
2024/02/24 08:48:20;;;;;;;10.17;7.90;;;5.80;99.90;;;;;;5615110;23;20041;-81
2024/02/24 09:16:45;;;;;;;9.13;4.87;;;5.90;99.90;;;;;;4955627;23;20055;-82
2024/02/24 09:20:08;;;;;;;9.90;4.80;;;5.90;99.90;;;;;;4926042;28;38293;-80
2024/02/24 09:23:15;;;;;;;5.95;4.68;;;6.00;99.90;;;;;;4910942;29;48486;-83
2024/02/24 09:38:44;;;;;;;6.27;4.03;;;6.20;99.90;;;;;;5848713;23;20019;-80
2024/02/24 09:41:19;;;;;;;5.77;3.77;;;6.20;99.90;;;;;;4966258;23;39404;-80
2024/02/24 09:43:59;;;;;;;8.87;4.53;;;6.20;99.90;;;;;;4931141;29;37247;-82
2024/02/24 09:46:27;;;;;;;9.27;4.70;;;6.20;99.90;;;;;;4926545;28;40135;-84
2024/02/24 10:20:13;;;;;;;8.27;3.97;;;6.10;99.90;;;;;;5133777;23;20263;-82
2024/02/24 10:28:10;;;;;;;4.53;3.00;;;6.20;99.10;;;;;;5544457;23;20032;-83
2024/02/24 10:31:15;;;;;;;5.30;3.20;;;6.20;94.60;;;;;;4919624;29;49088;-83
2024/02/24 10:34:09;;;;;;;7.17;2.83;;;6.30;96.40;;;;;;4936376;29;47709;-81
2024/02/24 10:37:28;;;;;;;8.77;3.00;;;6.40;84.40;;;;;;4923987;29;49041;-81
2024/02/24 10:48:32;;;;;;;4.80;2.57;;;6.80;58.70;;;;;;5280161;23;20056;-81
2024/02/24 10:58:47;;;;;;;3.20;2.70;;;7.00;24.80;;;;;;5901363;23;20017;-79
2024/02/24 11:01:16;;;;;;;3.43;2.70;;;7.10;16.40;;;;;;5391930;23;36349;-79
2024/02/24 11:03:43;;;;;;;6.87;2.70;;;7.20;6.60;;;;;;4913760;29;36905;-80
2024/02/24 11:06:51;;;;;;;3.57;2.40;;;7.10;12.60;;;;;;4904579;29;38037;-80
2024/02/24 11:09:29;;;;;;;6.23;2.80;;;7.10;22.90;;;;;;4879450;29;37485;-81
2024/02/24 11:12:12;;;;;;;6.43;2.40;;;7.00;24.60;;;;;;4894727;29;39213;-81
2024/02/24 11:15:29;;;;;;;6.07;3.03;;;7.10;26.80;;;;;;4895991;29;50062;-81
2024/02/24 11:19:13;;;;;;;3.37;2.70;;;6.90;34.20;;;;;;4900968;29;39547;-81
2024/02/24 11:22:08;;;;;;;6.03;3.80;;;6.90;35.30;;;;;;4904596;29;50380;-80
2024/02/24 11:24:36;;;;;;;7.77;3.63;;;7.00;38.10;;;;;;4897446;29;50151;-80
2024/02/24 11:27:12;;;;;;;6.20;3.57;;;7.00;40.30;;;;;;4899690;29;39679;-81
2024/02/24 11:29:48;;;;;;;7.83;4.47;;;6.80;50.00;;;;;;4920826;28;37575;-81
2024/02/24 11:32:46;;;;;;;5.63;4.43;;;6.90;63.10;;;;;;4896602;29;38480;-81
2024/02/24 11:35:14;;;;;;;6.07;4.03;;;6.80;59.50;;;;;;4896739;29;38889;-79
2024/02/24 11:37:43;;;;;;;6.13;4.23;;;6.80;59.20;;;;;;4903392;29;38412;-80
2024/02/24 11:40:10;;;;;;;3.40;2.63;;;6.80;76.30;;;;;;4898256;29;39976;-80
2024/02/24 11:42:39;;;;;;;4.50;2.00;;;6.70;60.00;;;;;;4909853;29;37715;-80
2024/02/24 11:45:10;;;;;;;2.93;1.73;;;6.80;59.90;;;;;;4924348;28;39056;-80
2024/02/24 11:47:39;;;;;;;3.50;1.90;;;6.90;52.50;;;;;;4907391;29;37956;-80
2024/02/24 11:50:06;;;;;;;3.90;2.13;;;6.80;73.70;;;;;;4911606;29;38092;-80
2024/02/24 11:52:33;;;;;;;2.73;2.17;;;6.50;95.60;;;;;;4916331;28;37721;-80
2024/02/24 11:55:02;;;;;;;4.10;2.70;;;6.10;99.90;;;;;;4908691;29;39189;-80
2024/02/24 11:57:32;;;;;;;4.40;3.10;;;6.00;99.90;;;;;;4908683;29;39360;-80
2024/02/24 11:59:58;;;;;;;3.80;2.70;;;6.00;99.90;;;;;;4907401;29;38529;-80
2024/02/24 12:02:26;;;;;;;6.73;3.07;;;5.80;99.90;;;;;;4903437;29;35463;-79
2024/02/24 12:04:53;;;;;;;4.07;3.10;;;5.70;99.90;;;;;;4902563;29;40342;-80
2024/02/24 12:07:22;;;;;;;5.10;3.63;;;5.60;99.90;;;;;;4897879;29;37559;-80
2024/02/24 12:09:48;;;;;;;7.73;4.10;;;5.60;99.90;;;;;;4906484;29;39411;-81
2024/02/24 12:12:14;;;;;;;8.20;4.63;;;5.60;99.90;;;;;;4907747;28;37548;-80
2024/02/24 12:14:44;;;;;;;5.00;4.27;;;5.70;99.90;;;;;;4904438;29;38548;-81
2024/02/24 12:17:11;;;;;;;10.43;5.20;;;5.80;99.90;;;;;;4905235;29;37536;-80
2024/02/24 12:19:37;;;;;;;7.20;4.80;;;5.90;99.90;;;;;;4910248;28;37445;-80
2024/02/24 12:22:08;;;;;;;6.33;4.50;;;5.90;99.90;;;;;;4919479;28;36561;-79
2024/02/24 12:24:48;;;;;;;7.33;5.30;;;5.90;99.90;;;;;;4917748;29;39016;-81
2024/02/24 12:27:19;;;;;;;6.87;5.13;;;6.00;99.90;;;;;;4914923;29;38731;-81
2024/02/24 12:29:45;;;;;;;7.03;4.47;;;6.10;99.90;;;;;;4920186;29;37410;-82
2024/02/24 12:32:13;;;;;;;6.33;4.13;;;6.20;99.90;;;;;;4921003;28;39781;-79
2024/02/24 12:34:43;;;;;;;5.47;4.10;;;6.30;99.90;;;;;;4920814;29;38302;-81
2024/02/24 12:37:09;;;;;;;5.67;4.40;;;6.40;99.90;;;;;;4914822;29;38716;-78
2024/02/24 12:39:40;;;;;;;7.07;4.97;;;6.40;99.90;;;;;;4919507;29;37178;-80
2024/02/24 12:42:06;;;;;;;8.57;4.87;;;6.40;99.90;;;;;;4913650;28;36633;-80
2024/02/24 12:44:33;;;;;;;7.37;4.73;;;6.40;99.90;;;;;;4913547;29;39455;-80
2024/02/24 12:46:59;;;;;;;5.97;5.20;;;6.40;99.90;;;;;;4920866;28;38213;-79
2024/02/24 12:49:25;;;;;;;5.37;4.57;;;6.50;99.90;;;;;;4925502;29;37926;-80
2024/02/24 12:51:54;;;;;;;7.20;4.43;;;6.50;99.90;;;;;;4910164;29;37190;-81
2024/02/24 12:54:20;;;;;;;6.90;4.50;;;6.60;99.90;;;;;;4909214;29;39331;-80
2024/02/24 12:56:48;;;;;;;6.50;3.60;;;6.70;99.90;;;;;;4904834;29;36987;-80
2024/02/24 12:59:14;;;;;;;7.40;3.83;;;6.80;99.90;;;;;;4905497;29;37998;-81
2024/02/24 13:01:40;;;;;;;7.13;3.67;;;6.90;99.90;;;;;;4906661;29;37812;-79
2024/02/24 13:04:13;;;;;;;5.27;2.93;;;6.90;99.90;;;;;;4908029;29;38260;-79
2024/02/24 13:06:54;;;;;;;4.00;2.65;;;7.20;99.90;;;;;;4915638;29;37851;-80
2024/02/24 13:09:21;;;;;;;4.17;2.60;;;7.30;95.50;;;;;;4924493;28;39356;-80
2024/02/24 13:11:52;;;;;;;4.97;2.70;;;7.20;92.20;;;;;;4932191;28;38335;-79
2024/02/24 13:14:18;;;;;;;5.80;2.83;;;7.20;87.40;;;;;;4920797;29;38871;-81
2024/02/24 13:16:44;;;;;;;6.33;2.70;;;7.20;77.90;;;;;;4924198;29;37812;-79
2024/02/24 13:19:10;;;;;;;7.10;3.20;;;7.40;84.40;;;;;;4910011;29;38584;-80
2024/02/24 13:21:41;;;;;;;6.13;2.90;;;7.50;66.40;;;;;;4915333;29;39127;-80
2024/02/24 13:24:07;;;;;;;4.13;2.73;;;7.60;63.40;;;;;;4910596;29;38110;-80
2024/02/24 13:26:34;;;;;;;3.97;1.93;;;7.60;29.90;;;;;;4919879;28;39606;-79
2024/02/24 13:29:00;;;;;;;3.70;2.23;;;7.70;46.90;;;;;;4915431;29;38526;-79
2024/02/24 13:31:26;;;;;;;3.70;2.33;;;7.80;28.90;;;;;;4910465;29;37158;-80
2024/02/24 13:33:56;;;;;;;4.20;2.23;;;7.80;23.10;;;;;;4904120;29;40216;-79
2024/02/24 13:36:24;;;;;;;9.50;2.43;;;7.80;22.70;;;;;;4902957;29;37857;-80
2024/02/24 13:38:50;;;;;;;7.53;2.27;;;7.80;26.70;;;;;;4906053;29;38232;-80
2024/02/24 13:41:17;;;;;;;3.07;2.20;;;7.80;26.80;;;;;;4909921;29;37579;-79
2024/02/24 13:43:46;;;;;;;4.77;2.73;;;7.90;19.50;;;;;;4906054;29;37453;-80
2024/02/24 13:46:15;;;;;;;3.27;2.30;;;8.00;6.90;;;;;;4915925;29;37481;-80
2024/02/24 13:49:01;;;;;;;10.00;2.90;;;8.40;1.00;;;;;;4922185;29;38014;-81
2024/02/24 13:51:33;;;;;;;4.53;3.23;;;8.50;1.00;;;;;;4903227;29;48587;-81
2024/02/24 14:02:05;;;;;;;4.93;3.63;;;8.00;15.70;;;;;;4906807;23;20044;-79
2024/02/24 14:04:32;;;;;;;4.73;3.90;;;7.90;7.90;;;;;;4869191;29;47756;-78
2024/02/24 14:06:58;;;;;;;6.37;3.97;;;7.80;11.00;;;;;;4885354;29;39365;-77
2024/02/24 14:09:24;;;;;;;8.47;4.20;;;7.80;21.30;;;;;;4884623;29;39616;-78
2024/02/24 14:11:55;;;;;;;6.83;4.27;;;7.70;10.70;;;;;;4901036;29;36281;-77
2024/02/24 14:14:21;;;;;;;4.10;3.53;;;7.70;27.60;;;;;;4881597;29;38673;-78
2024/02/24 14:16:47;;;;;;;4.93;3.30;;;7.70;18.00;;;;;;4886276;29;38550;-77
2024/02/24 14:19:16;;;;;;;5.90;4.03;;;8.00;19.10;;;;;;4879836;29;37305;-77
2024/02/24 14:21:43;;;;;;;5.27;3.90;;;8.00;5.80;;;;;;5451721;23;38791;-79
2024/02/24 14:24:17;;;;;;;4.33;3.73;;;8.00;1.00;;;;;;4931940;28;39761;-80
2024/02/24 14:26:48;;;;;;;5.83;4.13;;;8.00;1.00;;;;;;4921489;28;40038;-80
2024/02/24 14:29:14;;;;;;;5.10;3.87;;;7.90;7.00;;;;;;4947178;29;36855;-80
2024/02/24 14:31:50;;;;;;;4.80;3.97;;;7.90;11.10;;;;;;4926273;28;36696;-80
2024/02/24 14:34:33;;;;;;;4.67;3.73;;;7.80;14.30;;;;;;4928671;28;38788;-80
2024/02/24 14:37:00;;;;;;;9.20;3.90;;;7.90;8.80;;;;;;4923558;29;38097;-78
2024/02/24 15:52:24;;;;;;;5.60;2.00;;;7.80;1.00;;;;;;5972248;23;21143;-79
2024/02/24 17:15:35;;;;;;;6.03;3.00;;;7.20;6.50;;;;;;5787138;23;20046;-79
2024/02/24 17:28:28;;;;;;;6.20;2.10;;;7.20;1.00;;;;;;5622078;23;20051;-81
2024/02/24 17:34:45;;;;;;;6.67;2.13;;;7.20;4.30;;;;;;4908750;29;50765;-82
2024/02/24 17:37:13;;;;;;;6.13;2.10;;;7.20;3.70;;;;;;4894687;29;38852;-81
2024/02/24 18:08:15;;;;;;;7.83;2.50;;;7.10;68.50;;;;;;5848368;23;20020;-81
2024/02/24 18:10:41;;;;;;;11.83;3.17;;;6.90;94.20;;;;;;4911793;29;39882;-81
2024/02/24 18:13:15;;;;;;;8.83;3.07;;;6.80;99.90;;;;;;4902748;29;38575;-80
2024/02/24 18:15:42;;;;;;;4.53;2.83;;;6.70;99.90;;;;;;4910041;29;37029;-81
2024/02/24 18:18:09;;;;;;;9.40;3.37;;;6.70;99.90;;;;;;4905779;29;39388;-81
2024/02/24 18:20:46;;;;;;;8.50;3.27;;;6.70;99.90;;;;;;4906783;29;38830;-80
2024/02/24 18:23:25;;;;;;;11.80;3.53;;;6.60;99.90;;;;;;4899984;29;38252;-80
2024/02/24 18:25:54;;;;;;;7.40;3.60;;;6.60;99.90;;;;;;4891669;29;36195;-81
2024/02/24 18:28:31;;;;;;;9.77;3.87;;;6.60;99.90;;;;;;4898519;29;39259;-79
2024/02/24 18:31:10;;;;;;;8.13;4.00;;;6.60;99.90;;;;;;4903665;29;39049;-79
2024/02/24 18:33:39;;;;;;;10.00;3.97;;;6.60;99.90;;;;;;4900471;29;49998;-80
2024/02/24 18:36:10;;;;;;;8.43;4.00;;;6.70;99.90;;;;;;4900006;29;37897;-79
2024/02/24 18:38:50;;;;;;;7.57;3.53;;;6.60;99.90;;;;;;4899829;29;39265;-80
2024/02/24 18:41:31;;;;;;;11.40;4.20;;;6.60;99.90;;;;;;4905639;29;38454;-80
2024/02/24 18:44:14;;;;;;;6.90;3.77;;;6.60;99.90;;;;;;4907921;29;39391;-80
2024/02/24 18:54:35;;;;;;;7.87;1.70;;;6.20;99.90;;;;;;5148114;23;20037;-83
2024/02/24 20:07:43;;;;;;;6.43;2.30;;;5.30;99.90;;;;;;5328380;23;20199;-81
2024/02/24 20:10:18;;;;;;;3.27;2.00;;;5.30;99.90;;;;;;4925283;29;37814;-81
2024/02/24 20:24:15;;;;;;;8.80;3.80;;;5.40;99.90;;;;;;5158779;23;20041;-82
2024/02/24 20:26:53;;;;;;;6.53;2.90;;;5.40;99.90;;;;;;4913462;29;47361;-81
2024/02/24 20:32:52;;;;;;;6.32;3.17;;;5.40;99.90;;;;;;4911591;29;50650;-81
2024/02/24 20:35:36;;;;;;;5.57;3.40;;;5.40;99.90;;;;;;4911550;29;38144;-80
2024/02/24 20:38:19;;;;;;;6.77;4.30;;;5.40;99.90;;;;;;4910254;29;38793;-80
2024/02/24 20:43:53;;;;;;;4.40;4.00;;;5.40;99.90;;;;;;4918272;29;50948;-82
2024/02/24 20:46:24;;;;;;;7.43;5.13;;;5.50;99.90;;;;;;4916385;29;39373;-81
2024/02/24 20:48:58;;;;;;;7.10;4.40;;;5.50;99.90;;;;;;4915300;29;37486;-81
2024/02/24 20:51:32;;;;;;;5.73;4.83;;;5.50;99.90;;;;;;4909892;28;37287;-81
2024/02/24 20:54:13;;;;;;;11.30;5.27;;;5.50;99.90;;;;;;4903789;29;36510;-82
2024/02/24 20:56:40;;;;;;;6.73;4.33;;;5.50;99.90;;;;;;4915272;29;48485;-81
2024/02/24 20:59:50;;;;;;;9.03;4.23;;;5.60;99.90;;;;;;4903435;28;39180;-79
2024/02/24 21:02:50;;;;;;;6.37;3.80;;;5.60;99.90;;;;;;4909862;29;38382;-81
2024/02/24 21:05:47;;;;;;;16.17;4.63;;;5.70;99.90;;;;;;4899424;29;39753;-81
2024/02/24 21:24:43;;;;;;;7.83;3.60;;;6.00;99.90;;;;;;5706400;23;20045;-82
2024/02/24 21:40:12;;;;;;;7.77;2.93;;;6.20;99.90;;;;;;5632334;23;20067;-81
2024/02/24 21:46:12;;;;;;;7.07;2.53;;;6.20;99.90;;;;;;4926234;28;50314;-83
2024/02/24 21:52:11;;;;;;;10.33;3.10;;;6.30;99.90;;;;;;4929792;28;50542;-83
2024/02/24 21:54:48;;;;;;;6.83;2.57;;;6.30;99.90;;;;;;4924960;29;50269;-82
2024/02/24 21:59:50;;;;;;;4.33;1.87;;;6.20;99.90;;;;;;5726834;23;20041;-82
2024/02/24 22:12:41;;;;;;;8.00;2.53;;;6.20;99.90;;;;;;5791159;23;19997;-81
2024/02/24 22:21:08;;;;;;;4.70;1.90;;;6.20;99.90;;;;;;5804265;23;20042;-83
2024/02/24 22:55:34;;;;;;;8.47;2.60;;;6.10;99.90;;;;;;5610614;23;20048;-81
2024/02/24 23:28:14;;;;;;;5.90;2.20;;;6.10;99.90;;;;;;6273729;22;2200452;-80
2024/02/24 23:56:44;;;;;;;4.63;2.90;;;6.20;99.90;;;;;;6277113;22;20016;-80
2024/02/24 23:59:46;;;;;;;8.27;2.80;;;6.20;99.90;;;;;;6290450;22;37681;-81
